JTD207 EKCH-GCLP
Flight info
| Callsign | JTD207 |
|---|---|
| Flight time | N/A |
| Altitude | 32000 |
| Route | NEXEN T503 GIMRU DCT KUXOD DCT MICOS DCT MAS DCT RASCA DCT FAMEN DCT AHVEC DCT RESMI DCT DEKOD DCT DISAK DCT ARKIP DCT ARNAV DCT LMG DCT UVELI DCT OSMOB DCT ARVID DCT PPN DCT NOLSA DCT ALEPO DCT VASUM N10 BAN DCT GOTOR DCT KAMPO DCT MONTO DCT MOLIN DCT HIJ DCT SVL DCT CLANA DCT KORNO UN857 TERTO |
| Aircraft | B738/M-SDE2E3FGHIRWXY/LB1 |
Departure
| Time | 2026-05-04 07:59 |
|---|---|
| Airport | Copenhagen Kastrup Airport (EKCH) |
Arrival
| Time | N/A |
|---|---|
| Airport | Gran Canaria Airport (GCLP) |
| Time | Latitude | Longitude | Altitude | Speed | Heading |
|---|---|---|---|---|---|
| 2026-05-04 07:22 | 55.62906 | 12.63624 | 23 ft | 0 kts | 43° |
| 2026-05-04 07:46 | 55.62897 | 12.63610 | 23 ft | 4 kts | 40° |
| 2026-05-04 07:46 | 55.62875 | 12.63580 | 23 ft | 4 kts | 40° |
| 2026-05-04 07:46 | 55.62860 | 12.63549 | 24 ft | 2 kts | 65° |
| 2026-05-04 07:47 | 55.62856 | 12.63512 | 24 ft | 4 kts | 102° |
| 2026-05-04 07:47 | 55.62857 | 12.63476 | 23 ft | 4 kts | 89° |
| 2026-05-04 07:47 | 55.62856 | 12.63439 | 24 ft | 4 kts | 78° |
| 2026-05-04 07:49 | 55.62825 | 12.63374 | 23 ft | 0 kts | 41° |
| 2026-05-04 07:50 | 55.62825 | 12.63375 | 23 ft | 0 kts | 41° |
| 2026-05-04 07:50 | 55.62836 | 12.63392 | 25 ft | 5 kts | 43° |
| 2026-05-04 07:51 | 55.62856 | 12.63474 | 23 ft | 10 kts | 85° |
| 2026-05-04 07:51 | 55.62861 | 12.63615 | 25 ft | 12 kts | 86° |
| 2026-05-04 07:51 | 55.62856 | 12.63758 | 26 ft | 12 kts | 103° |
| 2026-05-04 07:51 | 55.62838 | 12.63894 | 24 ft | 11 kts | 103° |
| 2026-05-04 07:52 | 55.62779 | 12.63953 | 25 ft | 11 kts | 194° |
| 2026-05-04 07:52 | 55.62714 | 12.63884 | 26 ft | 11 kts | 213° |
| 2026-05-04 07:52 | 55.62649 | 12.63874 | 23 ft | 10 kts | 139° |
| 2026-05-04 07:52 | 55.62606 | 12.63986 | 24 ft | 12 kts | 123° |
| 2026-05-04 07:53 | 55.62552 | 12.64132 | 24 ft | 15 kts | 123° |
| 2026-05-04 07:54 | 55.62025 | 12.64197 | 23 ft | 13 kts | 205° |
| 2026-05-04 07:55 | 55.61945 | 12.64130 | 25 ft | 12 kts | 205° |
| 2026-05-04 07:55 | 55.61864 | 12.64073 | 26 ft | 13 kts | 187° |
| 2026-05-04 07:55 | 55.61785 | 12.64078 | 23 ft | 0 kts | 176° |
| 2026-05-04 07:56 | 55.61782 | 12.64078 | 23 ft | 0 kts | 176° |
| 2026-05-04 07:57 | 55.61774 | 12.64079 | 23 ft | 4 kts | 176° |
| 2026-05-04 07:57 | 55.61741 | 12.64083 | 24 ft | 5 kts | 176° |
| 2026-05-04 07:57 | 55.61705 | 12.64088 | 24 ft | 5 kts | 176° |
| 2026-05-04 07:57 | 55.61670 | 12.64092 | 26 ft | 5 kts | 176° |
| 2026-05-04 07:58 | 55.61634 | 12.64080 | 26 ft | 6 kts | 207° |
| 2026-05-04 07:58 | 55.61561 | 12.63971 | 28 ft | 35 kts | 220° |
| 2026-05-04 07:58 | 55.61199 | 12.63410 | 27 ft | 101 kts | 221° |
| 2026-05-04 07:58 | 55.60523 | 12.62363 | 28 ft | 155 kts | 221° |
| 2026-05-04 07:59 | 55.59616 | 12.61002 | 281 ft | 180 kts | 222° |
| 2026-05-04 07:59 | 55.58674 | 12.59611 | 1104 ft | 178 kts | 223° |
| 2026-05-04 07:59 | 55.57676 | 12.58075 | 1381 ft | 202 kts | 223° |
| 2026-05-04 07:59 | 55.56557 | 12.56398 | 1596 ft | 221 kts | 221° |
| 2026-05-04 08:00 | 55.55286 | 12.54750 | 2007 ft | 230 kts | 218° |
| 2026-05-04 08:00 | 55.53950 | 12.53109 | 2426 ft | 242 kts | 218° |
| 2026-05-04 08:00 | 55.52527 | 12.51368 | 2883 ft | 253 kts | 217° |
| 2026-05-04 08:02 | 55.42258 | 12.38846 | 8036 ft | 262 kts | 218° |
| 2026-05-04 08:02 | 55.40752 | 12.37013 | 8733 ft | 264 kts | 218° |
| 2026-05-04 08:02 | 55.39237 | 12.35168 | 9425 ft | 265 kts | 218° |
| 2026-05-04 08:03 | 55.37716 | 12.33318 | 10134 ft | 266 kts | 218° |
| 2026-05-04 08:03 | 55.36150 | 12.31416 | 10441 ft | 283 kts | 218° |
| 2026-05-04 08:03 | 55.34475 | 12.29375 | 10606 ft | 303 kts | 218° |
| 2026-05-04 08:03 | 55.32685 | 12.27200 | 10766 ft | 322 kts | 218° |
| 2026-05-04 08:04 | 55.30785 | 12.24899 | 10919 ft | 341 kts | 217° |
| 2026-05-04 08:04 | 55.28781 | 12.22475 | 11070 ft | 358 kts | 217° |
| 2026-05-04 08:04 | 55.26699 | 12.19964 | 11444 ft | 367 kts | 217° |
| 2026-05-04 08:04 | 55.24595 | 12.17428 | 12076 ft | 366 kts | 217° |
| 2026-05-04 08:05 | 55.22496 | 12.14903 | 12734 ft | 366 kts | 217° |
| 2026-05-04 08:05 | 55.20387 | 12.12367 | 13238 ft | 370 kts | 217° |
| 2026-05-04 08:05 | 55.18278 | 12.09743 | 13703 ft | 374 kts | 219° |
| 2026-05-04 08:05 | 55.16176 | 12.07050 | 14274 ft | 375 kts | 219° |
| 2026-05-04 08:06 | 55.14067 | 12.04330 | 14794 ft | 378 kts | 219° |
| 2026-05-04 08:06 | 55.11952 | 12.01599 | 15331 ft | 379 kts | 219° |
| 2026-05-04 08:06 | 55.09820 | 11.98859 | 15790 ft | 383 kts | 219° |
| 2026-05-04 08:06 | 55.07662 | 11.96097 | 16229 ft | 386 kts | 219° |
| 2026-05-04 08:08 | 54.92152 | 11.76410 | 19360 ft | 402 kts | 218° |
| 2026-05-04 08:08 | 54.89884 | 11.73548 | 19757 ft | 404 kts | 218° |
| 2026-05-04 08:10 | 54.72057 | 11.51246 | 22427 ft | 420 kts | 218° |
| 2026-05-04 08:11 | 54.69676 | 11.48290 | 22761 ft | 422 kts | 218° |
| 2026-05-04 08:11 | 54.64892 | 11.42368 | 23358 ft | 425 kts | 218° |
| 2026-05-04 08:11 | 54.62479 | 11.39385 | 23626 ft | 427 kts | 218° |
| 2026-05-04 08:12 | 54.60059 | 11.36399 | 23933 ft | 428 kts | 218° |
| 2026-05-04 08:12 | 54.57635 | 11.33413 | 24220 ft | 429 kts | 218° |
| 2026-05-04 08:12 | 54.55265 | 11.30277 | 24465 ft | 430 kts | 223° |
| 2026-05-04 08:12 | 54.53158 | 11.26623 | 24744 ft | 430 kts | 228° |
| 2026-05-04 08:13 | 54.51075 | 11.22824 | 25043 ft | 430 kts | 227° |
| 2026-05-04 08:13 | 54.48933 | 11.19217 | 25298 ft | 433 kts | 222° |
| 2026-05-04 08:13 | 54.46506 | 11.16139 | 25592 ft | 436 kts | 214° |
| 2026-05-04 08:13 | 54.43864 | 11.13594 | 25997 ft | 434 kts | 212° |
| 2026-05-04 08:14 | 54.41246 | 11.11064 | 26398 ft | 431 kts | 213° |
| 2026-05-04 08:14 | 54.38650 | 11.08503 | 26732 ft | 430 kts | 213° |
| 2026-05-04 08:14 | 54.36065 | 11.05930 | 27057 ft | 429 kts | 213° |
| 2026-05-04 08:16 | 54.20548 | 10.83603 | 29497 ft | 411 kts | 227° |
| 2026-05-04 08:16 | 54.18510 | 10.80183 | 29790 ft | 410 kts | 227° |
| 2026-05-04 08:16 | 54.16479 | 10.76784 | 30139 ft | 408 kts | 227° |
| 2026-05-04 08:17 | 54.14461 | 10.73413 | 30493 ft | 405 kts | 227° |
| 2026-05-04 08:17 | 54.12448 | 10.70054 | 30708 ft | 406 kts | 227° |
| 2026-05-04 08:17 | 54.10425 | 10.66684 | 30887 ft | 407 kts | 227° |
| 2026-05-04 08:17 | 54.08400 | 10.63313 | 31134 ft | 407 kts | 226° |
| 2026-05-04 08:19 | 53.94244 | 10.39892 | 31966 ft | 404 kts | 226° |
| 2026-05-04 08:19 | 53.92231 | 10.36579 | 31973 ft | 403 kts | 226° |
| 2026-05-04 08:20 | 53.88215 | 10.29986 | 31973 ft | 401 kts | 226° |
| 2026-05-04 08:20 | 53.84214 | 10.23435 | 31974 ft | 400 kts | 226° |
| 2026-05-04 08:21 | 53.80215 | 10.16908 | 31982 ft | 399 kts | 226° |
| 2026-05-04 08:21 | 53.76219 | 10.10403 | 31985 ft | 399 kts | 226° |
| 2026-05-04 08:22 | 53.72214 | 10.03903 | 31998 ft | 400 kts | 226° |
| 2026-05-04 08:24 | 53.56002 | 9.77769 | 31996 ft | 406 kts | 225° |
| 2026-05-04 08:24 | 53.51908 | 9.71213 | 31993 ft | 407 kts | 225° |
| 2026-05-04 08:25 | 53.47801 | 9.64658 | 31991 ft | 407 kts | 225° |
| 2026-05-04 08:25 | 53.43689 | 9.58112 | 31989 ft | 408 kts | 225° |
| 2026-05-04 08:27 | 53.27190 | 9.32030 | 31988 ft | 410 kts | 225° |
| 2026-05-04 08:28 | 53.23035 | 9.25508 | 31993 ft | 410 kts | 225° |